createdAt,value
2023-05-24T00:02:15.277Z,3.27
2023-05-24T00:04:42.464Z,3.23
2023-05-24T00:07:09.220Z,3.20
2023-05-24T00:09:36.070Z,2.87
2023-05-24T00:12:03.090Z,2.73
2023-05-24T00:14:30.332Z,2.80
2023-05-24T00:16:57.064Z,3.23
2023-05-24T00:19:24.170Z,2.90
2023-05-24T00:21:51.380Z,3.03
2023-05-24T00:24:18.324Z,3.20
2023-05-24T00:26:45.539Z,3.33
2023-05-24T00:29:12.309Z,3.90
2023-05-24T00:31:39.061Z,2.90
2023-05-24T00:34:06.491Z,3.00
2023-05-24T00:36:33.310Z,3.33
2023-05-24T00:39:00.257Z,3.37
2023-05-24T00:41:27.007Z,3.03
2023-05-24T00:43:53.770Z,3.17
2023-05-24T00:46:32.256Z,3.03
2023-05-24T00:49:00.816Z,3.33
2023-05-24T00:51:28.736Z,3.63
2023-05-24T00:53:56.284Z,3.30
2023-05-24T00:56:23.535Z,3.03
2023-05-24T00:58:54.859Z,3.30
2023-05-24T01:01:25.916Z,3.13
2023-05-24T01:03:57.506Z,3.20
2023-05-24T01:06:27.260Z,2.80
2023-05-24T01:09:28.965Z,3.27
2023-05-24T01:12:13.876Z,3.07
2023-05-24T01:15:06.672Z,3.03
2023-05-24T01:17:42.890Z,3.33
2023-05-24T01:20:13.434Z,3.20
2023-05-24T01:22:52.137Z,3.60
2023-05-24T01:25:43.139Z,3.03
2023-05-24T01:28:11.865Z,2.77
2023-05-24T01:30:42.766Z,3.63
2023-05-24T01:33:10.055Z,3.20
2023-05-24T01:35:40.468Z,3.33
2023-05-24T01:38:07.736Z,3.10
2023-05-24T01:40:34.982Z,3.50
2023-05-24T01:43:22.298Z,3.10
2023-05-24T01:45:55.826Z,3.20
2023-05-24T01:48:22.476Z,3.27
2023-05-24T01:50:53.645Z,3.57
2023-05-24T01:53:23.116Z,3.77
2023-05-24T01:55:54.160Z,3.70
2023-05-24T01:58:25.167Z,3.50
2023-05-24T02:00:52.291Z,3.03
2023-05-24T02:03:20.116Z,3.60
2023-05-24T02:05:47.037Z,3.70
2023-05-24T02:08:13.907Z,3.47
2023-05-24T02:10:41.242Z,2.90
2023-05-24T02:13:09.428Z,3.33
2023-05-24T02:15:36.519Z,3.77
2023-05-24T02:18:04.230Z,3.00
2023-05-24T02:20:31.540Z,3.47
2023-05-24T02:22:58.487Z,3.67
2023-05-24T02:25:25.663Z,3.30
2023-05-24T02:27:52.526Z,3.90
2023-05-24T02:30:19.315Z,3.53
2023-05-24T02:32:46.870Z,3.40
2023-05-24T02:35:13.802Z,3.50
2023-05-24T02:37:41.112Z,3.57
2023-05-24T02:40:09.417Z,4.23
2023-05-24T02:42:36.370Z,3.77
2023-05-24T02:45:04.805Z,3.53
2023-05-24T02:47:31.517Z,3.03
2023-05-24T02:49:58.220Z,3.90
2023-05-24T02:52:24.888Z,3.50
2023-05-24T02:54:51.546Z,3.47
2023-05-24T02:57:18.408Z,4.13
2023-05-24T02:59:45.029Z,4.07
2023-05-24T03:02:13.864Z,3.70
2023-05-24T03:04:40.595Z,3.10
2023-05-24T03:07:07.345Z,3.53
2023-05-24T03:09:33.940Z,3.40
2023-05-24T03:12:00.742Z,3.13
2023-05-24T03:14:27.508Z,3.63
2023-05-24T03:16:54.187Z,3.27
2023-05-24T03:19:20.873Z,3.60
2023-05-24T03:21:47.520Z,3.73
2023-05-24T03:24:14.400Z,3.23
2023-05-24T03:26:41.252Z,3.30
2023-05-24T03:29:07.893Z,3.67
2023-05-24T03:31:34.635Z,3.40
2023-05-24T03:34:01.407Z,3.17
2023-05-24T03:36:29.282Z,3.20
2023-05-24T03:38:58.500Z,3.80
2023-05-24T03:41:25.454Z,4.13
2023-05-24T03:43:52.806Z,3.93
2023-05-24T03:46:19.594Z,3.40
2023-05-24T03:48:46.535Z,3.63
2023-05-24T03:51:13.213Z,3.00
2023-05-24T03:53:40.014Z,3.27
2023-05-24T03:56:06.925Z,3.73
2023-05-24T03:58:33.728Z,4.90
2023-05-24T04:01:01.244Z,4.70
2023-05-24T04:03:28.657Z,3.93
2023-05-24T04:05:55.391Z,3.67
2023-05-24T04:08:22.319Z,3.60
2023-05-24T04:10:49.047Z,4.00
2023-05-24T04:13:15.780Z,3.57
2023-05-24T04:15:43.561Z,4.20
2023-05-24T04:18:10.421Z,3.90
2023-05-24T04:20:37.410Z,3.73
2023-05-24T04:23:04.182Z,4.17
2023-05-24T04:25:30.930Z,3.80
2023-05-24T04:27:57.638Z,3.40
2023-05-24T04:30:24.404Z,3.23
2023-05-24T04:32:51.454Z,3.57
2023-05-24T04:35:18.442Z,2.90
2023-05-24T04:37:46.730Z,3.30
2023-05-24T04:40:13.603Z,3.80
2023-05-24T04:42:43.177Z,3.57
2023-05-24T04:45:10.309Z,4.70
2023-05-24T04:47:37.015Z,4.10
2023-05-24T04:50:04.254Z,5.00
2023-05-24T04:52:31.092Z,4.57
2023-05-24T04:54:58.250Z,4.43
2023-05-24T04:57:25.111Z,4.63
2023-05-24T04:59:51.817Z,4.07
2023-05-24T05:02:18.803Z,4.40
2023-05-24T05:04:45.452Z,5.07
2023-05-24T05:07:12.098Z,4.80
2023-05-24T05:09:38.760Z,4.53
2023-05-24T05:12:05.674Z,4.67
2023-05-24T05:14:32.420Z,4.43
2023-05-24T05:16:59.189Z,4.47
2023-05-24T05:19:25.816Z,4.10
2023-05-24T05:21:52.448Z,4.37
2023-05-24T05:24:19.180Z,4.70
2023-05-24T05:26:45.798Z,5.20
2023-05-24T05:29:12.460Z,5.47
2023-05-24T05:31:39.753Z,6.13
2023-05-24T05:34:09.958Z,5.30
2023-05-24T05:36:41.088Z,5.70
2023-05-24T05:39:11.522Z,5.87
2023-05-24T05:41:46.492Z,5.93
2023-05-24T05:44:13.685Z,6.27
2023-05-24T05:46:41.622Z,5.80
2023-05-24T05:49:08.452Z,6.00
2023-05-24T05:51:35.204Z,6.23
2023-05-24T05:54:01.888Z,6.07
2023-05-24T05:56:28.785Z,5.93
2023-05-24T05:58:55.739Z,5.90
2023-05-24T06:01:23.693Z,5.80
2023-05-24T06:03:51.598Z,5.77
2023-05-24T06:06:18.433Z,5.10
2023-05-24T06:08:45.094Z,6.30
2023-05-24T06:11:11.798Z,5.60
2023-05-24T06:13:38.459Z,5.57
2023-05-24T06:16:05.345Z,6.93
2023-05-24T06:18:32.740Z,5.43
2023-05-24T06:20:59.416Z,6.13
2023-05-24T06:23:26.142Z,6.03
2023-05-24T06:25:52.808Z,6.17
2023-05-24T06:28:19.417Z,6.80
2023-05-24T06:30:47.591Z,6.70
2023-05-24T06:33:14.359Z,5.80
2023-05-24T06:35:41.143Z,6.37
2023-05-24T06:38:07.911Z,5.70
2023-05-24T06:40:34.625Z,5.63
2023-05-24T06:43:01.959Z,5.73
2023-05-24T06:45:28.660Z,5.70
2023-05-24T06:47:55.428Z,5.37
2023-05-24T06:50:25.398Z,5.60
2023-05-24T06:52:53.671Z,4.10
2023-05-24T06:55:20.767Z,4.20
2023-05-24T06:57:47.444Z,4.43
2023-05-24T07:00:14.915Z,4.67
2023-05-24T07:02:42.097Z,5.57
2023-05-24T07:05:12.575Z,5.23
2023-05-24T07:07:40.479Z,5.77
2023-05-24T07:10:08.353Z,5.60
2023-05-24T07:12:35.202Z,5.63
2023-05-24T07:15:01.930Z,5.07
2023-05-24T07:17:28.637Z,4.63
2023-05-24T07:19:55.335Z,6.00
2023-05-24T07:22:22.821Z,5.60
2023-05-24T07:24:49.504Z,6.40
2023-05-24T07:27:16.262Z,5.73
2023-05-24T07:29:42.998Z,5.47
2023-05-24T07:32:09.913Z,5.20
2023-05-24T07:34:36.639Z,4.67
2023-05-24T07:37:03.941Z,4.30
2023-05-24T07:39:30.782Z,5.20
2023-05-24T07:41:57.499Z,4.50
2023-05-24T07:44:24.352Z,4.30
2023-05-24T07:46:51.309Z,4.90
2023-05-24T07:49:18.133Z,4.97
2023-05-24T07:51:45.525Z,5.53
2023-05-24T07:54:12.186Z,5.03
2023-05-24T07:56:38.816Z,4.70
2023-05-24T07:59:05.844Z,5.27
2023-05-24T08:01:35.101Z,4.17
2023-05-24T08:04:05.861Z,4.20
2023-05-24T08:06:35.481Z,4.17
2023-05-24T08:09:05.538Z,3.87
2023-05-24T08:11:32.360Z,3.57
2023-05-24T08:13:58.998Z,4.03
2023-05-24T08:16:26.136Z,3.57
2023-05-24T08:18:54.962Z,4.40
2023-05-24T08:21:22.671Z,3.60
2023-05-24T08:23:49.385Z,3.37
2023-05-24T08:26:19.160Z,3.00
2023-05-24T08:28:45.849Z,3.40
2023-05-24T08:31:12.577Z,3.50
2023-05-24T08:33:39.638Z,3.63
2023-05-24T08:36:07.161Z,3.60
2023-05-24T08:38:33.882Z,3.77
2023-05-24T08:41:00.606Z,3.70
2023-05-24T08:43:31.999Z,3.50
2023-05-24T08:46:02.422Z,3.20
2023-05-24T08:48:29.576Z,3.53
2023-05-24T08:50:57.938Z,2.97
2023-05-24T08:53:24.931Z,3.47
2023-05-24T08:55:55.910Z,3.80
2023-05-24T08:58:22.745Z,3.10
2023-05-24T09:00:49.477Z,3.50
2023-05-24T09:03:17.726Z,3.40
2023-05-24T09:05:45.424Z,3.80
2023-05-24T09:08:18.282Z,3.60
2023-05-24T09:13:19.814Z,2.80
2023-05-24T09:15:46.939Z,3.20
2023-05-24T09:18:13.701Z,2.97
2023-05-24T09:20:40.549Z,2.87
2023-05-24T09:23:08.793Z,3.07
2023-05-24T09:25:35.913Z,3.20
2023-05-24T09:28:07.801Z,2.67
2023-05-24T09:30:35.993Z,2.77
2023-05-24T09:33:04.039Z,2.73
2023-05-24T09:35:31.762Z,2.63
2023-05-24T09:38:03.320Z,2.97
2023-05-24T09:40:30.894Z,2.50
2023-05-24T09:43:09.774Z,3.27
2023-05-24T09:45:46.803Z,2.77
2023-05-24T09:48:15.333Z,2.83
2023-05-24T09:50:42.595Z,2.17
2023-05-24T09:53:09.537Z,2.53
2023-05-24T09:55:37.407Z,2.50
2023-05-24T09:58:08.623Z,2.50
2023-05-24T10:00:41.685Z,2.80
2023-05-24T10:03:15.225Z,2.67
2023-05-24T10:05:44.776Z,2.50
2023-05-24T10:08:12.598Z,2.40
2023-05-24T10:10:39.398Z,2.83
2023-05-24T10:13:06.089Z,2.87
2023-05-24T10:15:32.779Z,2.57
2023-05-24T10:18:09.827Z,2.43
2023-05-24T10:20:41.443Z,2.50
2023-05-24T10:23:10.405Z,2.77
2023-05-24T10:25:41.956Z,2.73
2023-05-24T10:28:12.740Z,2.83
2023-05-24T10:31:03.550Z,2.63
2023-05-24T10:33:32.521Z,2.50
2023-05-24T10:35:59.648Z,2.50
2023-05-24T10:38:26.434Z,2.67
2023-05-24T10:40:53.341Z,2.47
2023-05-24T10:43:21.931Z,2.30
2023-05-24T10:45:50.761Z,2.53
2023-05-24T10:48:17.737Z,2.53
2023-05-24T10:50:44.804Z,2.53
2023-05-24T10:53:19.355Z,2.40
2023-05-24T10:55:59.958Z,2.30
2023-05-24T10:58:58.325Z,2.30
2023-05-24T11:01:34.980Z,2.70
2023-05-24T11:04:15.399Z,2.00
2023-05-24T11:06:45.831Z,2.57
2023-05-24T11:09:12.505Z,2.20
2023-05-24T11:11:39.561Z,2.40
2023-05-24T11:14:06.419Z,2.43
2023-05-24T11:16:37.441Z,2.20
2023-05-24T11:19:19.419Z,2.70
2023-05-24T11:21:52.349Z,2.27
2023-05-24T11:24:20.618Z,2.87
2023-05-24T11:26:47.410Z,2.67
2023-05-24T11:29:22.792Z,2.50
2023-05-24T11:31:55.097Z,2.67
2023-05-24T11:34:22.099Z,2.57
2023-05-24T11:36:49.422Z,2.30
2023-05-24T11:39:16.727Z,2.53
2023-05-24T11:41:43.860Z,2.43
2023-05-24T11:44:12.163Z,3.00
2023-05-24T11:46:39.506Z,2.67
2023-05-24T11:49:07.091Z,2.60
2023-05-24T11:51:34.873Z,2.80
2023-05-24T11:54:01.956Z,2.43
2023-05-24T11:56:33.493Z,2.73
2023-05-24T11:59:16.127Z,2.23
2023-05-24T12:01:43.822Z,2.23
2023-05-24T12:04:12.007Z,2.17
2023-05-24T12:06:40.867Z,2.13
2023-05-24T12:09:10.365Z,2.60
2023-05-24T12:11:41.126Z,2.30
2023-05-24T12:14:12.674Z,2.30
2023-05-24T12:16:39.724Z,2.37
2023-05-24T12:19:11.846Z,2.63
2023-05-24T12:21:48.161Z,2.60
2023-05-24T12:24:16.633Z,2.47
2023-05-24T12:26:48.240Z,2.43
2023-05-24T12:29:15.870Z,2.30
2023-05-24T12:31:47.622Z,2.73
2023-05-24T12:34:16.869Z,2.33
2023-05-24T12:36:43.836Z,2.33
2023-05-24T12:39:24.273Z,2.20
2023-05-24T12:41:55.296Z,2.10
2023-05-24T12:44:26.292Z,2.70
2023-05-24T12:46:57.442Z,2.93
2023-05-24T12:49:25.244Z,2.17
2023-05-24T12:51:55.800Z,2.17
2023-05-24T12:54:25.031Z,2.57
2023-05-24T12:56:55.590Z,2.27
2023-05-24T12:59:23.207Z,2.80
2023-05-24T13:01:53.132Z,2.57
2023-05-24T13:04:22.732Z,2.43
2023-05-24T13:06:49.762Z,2.50
2023-05-24T13:09:19.062Z,2.60
2023-05-24T13:11:46.916Z,2.80
2023-05-24T13:14:15.620Z,2.63
2023-05-24T13:16:42.615Z,2.50
2023-05-24T13:19:10.448Z,2.73
2023-05-24T13:21:37.310Z,2.37
2023-05-24T13:24:05.564Z,2.20
2023-05-24T13:26:37.390Z,2.37
2023-05-24T13:31:37.641Z,2.37
2023-05-24T13:34:04.964Z,2.30
2023-05-24T13:36:31.792Z,2.80
2023-05-24T13:41:46.547Z,2.80
2023-05-24T13:44:14.787Z,2.70
2023-05-24T13:46:42.164Z,2.90
2023-05-24T13:47:40.611Z,2.60
2023-05-24T13:49:09.812Z,2.70
2023-05-24T13:51:37.959Z,2.80
2023-05-24T13:54:07.385Z,3.27
2023-05-24T13:56:35.050Z,2.60
2023-05-24T13:59:03.658Z,2.87
2023-05-24T14:01:31.277Z,2.60
2023-05-24T14:03:58.396Z,3.00
2023-05-24T14:06:25.056Z,2.93
2023-05-24T14:08:52.299Z,2.80
2023-05-24T14:11:19.742Z,2.47
2023-05-24T14:16:16.611Z,3.30
2023-05-24T14:18:43.360Z,3.17
2023-05-24T14:21:09.970Z,3.23
2023-05-24T14:23:36.681Z,3.73
2023-05-24T14:26:03.565Z,2.67
2023-05-24T14:28:30.256Z,3.23
2023-05-24T14:30:56.900Z,3.50
2023-05-24T14:33:23.675Z,3.90
2023-05-24T14:35:51.851Z,3.73
2023-05-24T14:38:18.688Z,3.60
2023-05-24T14:40:47.731Z,3.83
2023-05-24T14:43:14.447Z,3.07
2023-05-24T14:45:42.273Z,3.40
2023-05-24T14:48:13.522Z,3.50
2023-05-24T14:50:41.162Z,3.43
2023-05-24T14:53:14.238Z,3.23
2023-05-24T14:55:43.079Z,3.57
2023-05-24T14:58:12.021Z,3.60
2023-05-24T15:00:39.766Z,3.40
2023-05-24T15:03:08.124Z,3.60
2023-05-24T15:05:36.188Z,3.10
2023-05-24T15:08:02.981Z,3.20
2023-05-24T15:10:29.662Z,3.40
2023-05-24T15:12:56.352Z,2.90
2023-05-24T15:15:23.512Z,3.30
2023-05-24T15:17:50.286Z,2.93
2023-05-24T15:20:17.167Z,3.20
2023-05-24T15:22:43.976Z,3.20
2023-05-24T15:25:11.519Z,2.67
2023-05-24T15:27:38.332Z,2.83
2023-05-24T15:30:05.718Z,2.90
2023-05-24T15:32:32.384Z,2.80
2023-05-24T15:35:00.564Z,2.70
2023-05-24T15:37:27.444Z,2.40
2023-05-24T15:39:54.718Z,2.60
2023-05-24T15:42:23.575Z,2.30
2023-05-24T15:44:50.749Z,2.20
2023-05-24T15:47:18.662Z,2.30
2023-05-24T15:49:47.582Z,2.27
2023-05-24T15:52:14.306Z,3.00
2023-05-24T15:54:40.938Z,2.83
2023-05-24T15:57:07.715Z,2.67
2023-05-24T15:59:36.870Z,2.80
2023-05-24T16:02:03.619Z,2.80
2023-05-24T16:04:30.291Z,2.20
2023-05-24T16:06:56.946Z,2.50
2023-05-24T16:09:23.677Z,2.47
2023-05-24T16:11:50.483Z,3.37
2023-05-24T16:14:17.431Z,2.50
2023-05-24T16:16:44.417Z,2.47
2023-05-24T16:19:11.605Z,2.50
2023-05-24T16:21:38.462Z,2.97
2023-05-24T16:24:05.931Z,2.47
2023-05-24T16:26:32.748Z,3.07
2023-05-24T16:28:59.629Z,2.50
2023-05-24T16:31:26.349Z,2.93
2023-05-24T16:33:53.220Z,3.00
2023-05-24T16:36:21.203Z,2.77
2023-05-24T16:38:49.706Z,2.77
2023-05-24T16:41:16.437Z,2.77
2023-05-24T16:43:43.067Z,2.30
2023-05-24T16:46:11.037Z,2.90
2023-05-24T16:48:37.825Z,3.13
2023-05-24T16:51:04.568Z,2.60
2023-05-24T16:53:31.357Z,2.73
2023-05-24T16:55:58.170Z,2.90
2023-05-24T16:58:28.186Z,3.17
2023-05-24T17:00:55.112Z,2.93
2023-05-24T17:03:27.900Z,4.00
2023-05-24T17:05:56.809Z,3.10
2023-05-24T17:08:26.003Z,2.97
2023-05-24T17:10:56.226Z,3.10
2023-05-24T17:13:23.846Z,3.03
2023-05-24T17:15:52.277Z,2.80
2023-05-24T17:18:28.005Z,3.03
2023-05-24T17:21:00.010Z,3.10
2023-05-24T17:23:27.579Z,2.87
2023-05-24T17:25:55.666Z,3.20
2023-05-24T17:28:29.396Z,3.13
2023-05-24T17:31:00.511Z,3.10
2023-05-24T17:33:28.886Z,2.77
2023-05-24T17:35:56.716Z,2.67
2023-05-24T17:38:28.566Z,3.33
2023-05-24T17:40:59.630Z,2.83
2023-05-24T17:43:32.716Z,2.43
2023-05-24T17:46:04.114Z,2.73
2023-05-24T17:48:31.990Z,3.17
2023-05-24T17:51:03.982Z,2.47
2023-05-24T17:53:32.468Z,2.93
2023-05-24T17:55:59.967Z,2.73
2023-05-24T17:58:27.108Z,2.93
2023-05-24T18:00:53.784Z,3.40
2023-05-24T18:03:20.595Z,3.00
2023-05-24T18:05:47.352Z,4.67
2023-05-24T18:08:13.988Z,4.33
2023-05-24T18:10:40.782Z,3.90
2023-05-24T18:13:11.285Z,3.50
2023-05-24T18:15:37.924Z,3.40
2023-05-24T18:18:04.847Z,3.63
2023-05-24T18:20:32.401Z,3.60
2023-05-24T18:22:59.062Z,3.30
2023-05-24T18:25:25.905Z,4.63
2023-05-24T18:27:52.559Z,4.67
2023-05-24T18:30:19.359Z,6.20
2023-05-24T18:33:02.571Z,5.77
2023-05-24T18:35:32.319Z,4.50
2023-05-24T18:37:59.271Z,4.13
2023-05-24T18:40:26.168Z,3.67
2023-05-24T18:42:52.902Z,3.90
2023-05-24T18:45:19.813Z,4.37
2023-05-24T18:47:46.714Z,3.70
2023-05-24T18:50:13.415Z,4.30
2023-05-24T18:52:40.134Z,4.60
2023-05-24T18:55:10.769Z,4.10
2023-05-24T18:57:38.217Z,4.23
2023-05-24T19:00:07.191Z,4.37
2023-05-24T19:02:40.510Z,4.27
2023-05-24T19:05:08.437Z,4.67
2023-05-24T19:07:36.056Z,4.33
2023-05-24T19:10:03.385Z,4.47
2023-05-24T19:12:30.392Z,4.70
2023-05-24T19:14:57.167Z,4.40
2023-05-24T19:17:25.001Z,4.80
2023-05-24T19:19:52.765Z,4.47
2023-05-24T19:22:19.583Z,3.97
2023-05-24T19:24:46.431Z,5.00
2023-05-24T19:27:13.634Z,4.13
2023-05-24T19:29:40.343Z,4.77
2023-05-24T19:32:08.365Z,6.57
2023-05-24T19:34:37.256Z,5.07
2023-05-24T19:37:04.297Z,5.70
2023-05-24T19:39:30.953Z,5.47
2023-05-24T19:41:57.587Z,5.00
2023-05-24T19:44:24.237Z,5.10
2023-05-24T19:46:50.949Z,4.93
2023-05-24T19:49:17.551Z,4.80
2023-05-24T19:51:44.250Z,4.00
2023-05-24T19:54:11.193Z,5.17
2023-05-24T19:56:37.864Z,5.03
2023-05-24T19:59:04.556Z,5.03
2023-05-24T20:01:31.223Z,5.27
2023-05-24T20:03:58.576Z,4.80
2023-05-24T20:06:26.323Z,5.07
2023-05-24T20:08:53.410Z,5.03
2023-05-24T20:11:20.337Z,5.50
2023-05-24T20:13:47.044Z,5.00
2023-05-24T20:16:13.896Z,5.80
2023-05-24T20:18:40.884Z,5.07
2023-05-24T20:21:07.459Z,5.40
2023-05-24T20:23:34.216Z,5.20
2023-05-24T20:26:00.995Z,4.97
2023-05-24T20:28:31.282Z,4.10
2023-05-24T20:30:58.811Z,4.47
2023-05-24T20:33:25.611Z,4.03
2023-05-24T20:35:54.067Z,4.07
2023-05-24T20:38:20.763Z,3.97
2023-05-24T20:40:47.436Z,4.40
2023-05-24T20:43:14.174Z,4.43
2023-05-24T20:45:40.943Z,4.33
2023-05-24T20:48:07.656Z,4.60
2023-05-24T20:50:34.319Z,4.77
2023-05-24T20:53:00.990Z,4.83
2023-05-24T20:55:27.683Z,4.80
2023-05-24T20:57:54.376Z,4.60
2023-05-24T21:00:21.220Z,5.23
2023-05-24T21:02:48.150Z,4.57
2023-05-24T21:05:14.979Z,4.73
2023-05-24T21:07:41.690Z,4.33
2023-05-24T21:10:09.438Z,4.87
2023-05-24T21:12:36.117Z,5.30
2023-05-24T21:15:02.831Z,4.33
2023-05-24T21:17:29.506Z,5.07
2023-05-24T21:19:56.193Z,5.20
2023-05-24T21:22:23.001Z,4.50
2023-05-24T21:24:49.795Z,4.67
2023-05-24T21:27:17.868Z,4.87
2023-05-24T21:29:44.574Z,4.90
2023-05-24T21:32:11.273Z,4.67
2023-05-24T21:34:37.974Z,4.73
2023-05-24T21:37:05.193Z,5.20
2023-05-24T21:39:32.658Z,4.67
2023-05-24T21:41:59.351Z,4.60
2023-05-24T21:44:26.017Z,4.93
2023-05-24T21:46:52.787Z,5.03
2023-05-24T21:49:21.444Z,5.00
2023-05-24T21:51:48.146Z,4.97
2023-05-24T21:54:15.132Z,4.50
2023-05-24T21:56:41.767Z,5.10
2023-05-24T21:59:08.439Z,4.73
2023-05-24T22:01:35.172Z,4.57
2023-05-24T22:04:01.926Z,5.10
2023-05-24T22:06:28.764Z,5.27
2023-05-24T22:08:57.886Z,5.43
2023-05-24T22:11:24.596Z,4.60
2023-05-24T22:13:51.485Z,4.80
2023-05-24T22:16:18.258Z,4.77
2023-05-24T22:18:44.980Z,4.53
2023-05-24T22:21:14.473Z,4.80
2023-05-24T22:23:41.396Z,4.60
2023-05-24T22:26:08.104Z,4.30
2023-05-24T22:28:51.608Z,4.93
2023-05-24T22:31:19.925Z,4.90
2023-05-24T22:33:49.933Z,5.17
2023-05-24T22:36:16.943Z,3.97
2023-05-24T22:38:44.128Z,4.83
2023-05-24T22:41:11.056Z,5.17
2023-05-24T22:43:37.998Z,4.73
2023-05-24T22:46:05.881Z,4.27
2023-05-24T22:48:34.773Z,5.07
2023-05-24T22:51:01.602Z,4.60
2023-05-24T22:53:28.786Z,5.43
2023-05-24T22:55:55.655Z,5.10
2023-05-24T22:58:23.963Z,5.37
2023-05-24T23:00:51.462Z,4.97
2023-05-24T23:03:18.371Z,5.00
2023-05-24T23:05:45.808Z,5.23
2023-05-24T23:08:17.615Z,5.00
2023-05-24T23:10:46.282Z,5.00
2023-05-24T23:13:17.756Z,4.87
2023-05-24T23:15:46.904Z,5.90
2023-05-24T23:18:16.397Z,5.30
2023-05-24T23:20:44.613Z,4.60
2023-05-24T23:23:11.393Z,4.77
2023-05-24T23:25:38.167Z,5.00
2023-05-24T23:28:05.070Z,5.13
2023-05-24T23:30:31.859Z,5.17
2023-05-24T23:32:59.555Z,4.73
2023-05-24T23:35:26.283Z,5.07
2023-05-24T23:37:53.885Z,4.80
2023-05-24T23:40:20.860Z,4.97
2023-05-24T23:42:49.177Z,4.50
2023-05-24T23:45:16.395Z,4.20
2023-05-24T23:47:43.194Z,4.40
2023-05-24T23:50:10.790Z,4.10
2023-05-24T23:52:37.466Z,5.10
2023-05-24T23:55:04.500Z,4.67
2023-05-24T23:57:31.153Z,4.03
2023-05-24T23:59:57.962Z,4.10
